Time,TemperatureF,DewpointF,PressureIn,WindDirection,WindDirectionDegrees,WindSpeedMPH,WindSpeedGustMPH,Humidity,HourlyPrecipIn,Conditions,Clouds,dailyrainin,SolarRadiationWatts/m^2,SoftwareType,DateUTC
2013-08-25 00:02:00,-999.0,-99.9,-100.00,NW,311,0.0,0.0,-999,-99.99,,,-99.99,0.000000,,2013-08-25 04:02:00,
2013-08-25 00:44:00,68.0,59.0,-100.00,East,83,0.0,0.0,73,0.00,,,0.00,0.000000,,2013-08-25 04:44:00,
2013-08-25 00:54:00,68.0,59.0,-100.00,East,83,0.0,0.0,73,0.00,,,0.00,0.000000,,2013-08-25 04:54:00,
2013-08-25 01:03:00,68.0,59.0,-100.00,East,83,0.0,0.0,73,0.00,,,0.00,0.000000,,2013-08-25 05:03:00,
2013-08-25 01:43:00,66.0,59.0,-100.00,East,81,0.0,0.0,77,0.00,,,0.00,0.000000,,2013-08-25 05:43:00,
2013-08-25 01:52:00,66.0,59.0,-100.00,East,81,0.0,0.0,77,0.00,,,0.00,0.000000,,2013-08-25 05:52:00,
2013-08-25 02:03:00,66.0,59.0,-100.00,East,81,0.0,0.0,77,0.00,,,0.00,0.000000,,2013-08-25 06:03:00,
2013-08-25 02:43:00,66.0,58.0,-100.00,ENE,68,0.0,0.0,75,0.00,,,0.00,0.000000,,2013-08-25 06:43:00,
2013-08-25 02:52:00,66.0,58.0,-100.00,ENE,68,0.0,0.0,75,0.00,,,0.00,0.000000,,2013-08-25 06:52:00,
2013-08-25 03:01:00,66.0,58.0,-100.00,ENE,68,0.0,0.0,75,0.00,,,0.00,0.000000,,2013-08-25 07:01:00,
2013-08-25 03:42:00,65.0,58.0,-100.00,East,94,0.0,0.0,77,0.00,,,0.00,0.000000,,2013-08-25 07:42:00,
2013-08-25 03:52:00,65.0,58.0,-100.00,East,94,0.0,0.0,77,0.00,,,0.00,0.000000,,2013-08-25 07:52:00,
2013-08-25 04:02:00,65.0,58.0,-100.00,East,94,0.0,0.0,77,0.00,,,0.00,0.000000,,2013-08-25 08:02:00,
2013-08-25 04:42:00,63.0,58.0,-100.00,ENE,74,0.0,0.0,83,0.00,,,0.00,0.000000,,2013-08-25 08:42:00,
2013-08-25 04:52:00,63.0,58.0,-100.00,ENE,74,0.0,0.0,83,0.00,,,0.00,0.000000,,2013-08-25 08:52:00,
2013-08-25 05:02:00,63.0,58.0,-100.00,ENE,74,0.0,0.0,83,0.00,,,0.00,0.000000,,2013-08-25 09:02:00,
2013-08-25 05:44:00,62.0,58.0,-100.00,West,265,0.0,0.0,86,0.00,,,0.00,0.000000,,2013-08-25 09:44:00,
2013-08-25 05:55:00,62.0,58.0,-100.00,West,265,0.0,0.0,86,0.00,,,0.00,0.000000,,2013-08-25 09:55:00,
2013-08-25 06:03:00,62.0,58.0,-100.00,West,265,0.0,0.0,86,0.00,,,0.00,0.000000,,2013-08-25 10:03:00,
2013-08-25 06:42:00,61.0,59.0,-100.00,SW,230,0.0,0.0,92,0.00,,,0.00,0.000000,,2013-08-25 10:42:00,
2013-08-25 06:53:00,61.0,59.0,-100.00,SW,230,0.0,0.0,92,0.00,,,0.00,0.000000,,2013-08-25 10:53:00,
2013-08-25 07:02:00,61.0,59.0,-100.00,SW,230,0.0,0.0,92,0.00,,,0.00,0.000000,,2013-08-25 11:02:00,
2013-08-25 07:42:00,60.0,57.0,-100.00,WSW,241,0.0,0.0,91,0.00,,,0.00,1.000000,,2013-08-25 11:42:00,
2013-08-25 07:52:00,60.0,57.0,-100.00,WSW,241,0.0,0.0,91,0.00,,,0.00,1.000000,,2013-08-25 11:52:00,
2013-08-25 08:02:00,60.0,57.0,-100.00,WSW,241,0.0,0.0,91,0.00,,,0.00,1.000000,,2013-08-25 12:02:00,
2013-08-25 08:43:00,65.0,58.0,-100.00,East,88,0.0,0.0,77,0.00,,,-99.99,68.000000,,2013-08-25 12:43:00,
2013-08-25 08:52:00,65.0,58.0,-100.00,East,88,0.0,0.0,77,0.00,,,-99.99,68.000000,,2013-08-25 12:52:00,
2013-08-25 09:02:00,65.0,58.0,-100.00,East,88,0.0,0.0,77,0.00,,,-99.99,68.000000,,2013-08-25 13:02:00,
2013-08-25 09:42:00,68.0,58.0,-100.00,East,93,0.0,0.0,71,0.00,,,0.00,241.000000,,2013-08-25 13:42:00,
2013-08-25 09:52:00,68.0,58.0,-100.00,East,93,0.0,0.0,71,0.00,,,0.00,241.000000,,2013-08-25 13:52:00,
2013-08-25 10:02:00,68.0,58.0,-100.00,East,93,0.0,0.0,71,0.00,,,0.00,241.000000,,2013-08-25 14:02:00,
2013-08-25 10:42:00,73.0,59.0,-100.00,East,83,0.0,0.0,61,0.00,,,0.00,426.000000,,2013-08-25 14:42:00,
2013-08-25 10:52:00,73.0,59.0,-100.00,East,83,0.0,0.0,61,0.00,,,0.00,426.000000,,2013-08-25 14:52:00,
2013-08-25 11:01:00,73.0,59.0,-100.00,East,83,0.0,0.0,61,0.00,,,0.00,426.000000,,2013-08-25 15:01:00,
2013-08-25 11:05:00,76.0,59.0,-100.00,ENE,68,0.0,0.0,55,0.00,,,0.00,583.000000,,2013-08-25 15:05:00,
2013-08-25 11:44:00,76.0,59.0,-100.00,ENE,68,0.0,0.0,55,0.00,,,0.00,583.000000,,2013-08-25 15:44:00,
2013-08-25 11:55:00,76.0,59.0,-100.00,ENE,68,0.0,0.0,55,0.00,,,0.00,583.000000,,2013-08-25 15:55:00,
2013-08-25 12:44:00,79.0,59.0,-100.00,East,91,0.0,0.0,50,0.00,,,-99.99,716.000000,,2013-08-25 16:44:00,
2013-08-25 12:54:00,79.0,59.0,-100.00,East,91,0.0,0.0,50,0.00,,,-99.99,716.000000,,2013-08-25 16:54:00,
2013-08-25 13:03:00,79.0,59.0,-100.00,East,91,0.0,0.0,50,0.00,,,-99.99,716.000000,,2013-08-25 17:03:00,
2013-08-25 13:43:00,81.0,61.0,-100.00,NE,54,0.0,0.0,51,0.00,,,0.00,797.000000,,2013-08-25 17:43:00,
2013-08-25 13:53:00,81.0,61.0,-100.00,NE,54,0.0,0.0,51,0.00,,,0.00,797.000000,,2013-08-25 17:53:00,
2013-08-25 14:02:00,81.0,61.0,-100.00,NE,54,0.0,0.0,51,0.00,,,0.00,797.000000,,2013-08-25 18:02:00,
2013-08-25 14:43:00,82.0,60.0,-100.00,NNW,328,0.0,0.0,47,0.00,,,0.00,813.000000,,2013-08-25 18:43:00,
2013-08-25 14:52:00,82.0,60.0,-100.00,NNW,328,0.0,0.0,47,0.00,,,0.00,813.000000,,2013-08-25 18:52:00,
2013-08-25 15:02:00,82.0,60.0,-100.00,NNW,328,0.0,0.0,47,0.00,,,0.00,813.000000,,2013-08-25 19:02:00,
2013-08-25 15:42:00,83.0,56.0,-100.00,ENE,78,0.0,0.0,40,0.00,,,0.00,788.000000,,2013-08-25 19:42:00,
2013-08-25 15:53:00,83.0,56.0,-100.00,ENE,78,0.0,0.0,40,0.00,,,0.00,788.000000,,2013-08-25 19:53:00,
2013-08-25 16:03:00,83.0,56.0,-100.00,ENE,78,0.0,0.0,40,0.00,,,0.00,788.000000,,2013-08-25 20:03:00,
2013-08-25 16:43:00,83.0,55.0,-100.00,ENE,57,0.0,0.0,39,0.00,,,0.00,686.000000,,2013-08-25 20:43:00,
2013-08-25 16:53:00,83.0,55.0,-100.00,ENE,57,0.0,0.0,39,0.00,,,0.00,686.000000,,2013-08-25 20:53:00,
2013-08-25 17:02:00,83.0,55.0,-100.00,ENE,57,0.0,0.0,39,0.00,,,0.00,686.000000,,2013-08-25 21:02:00,
2013-08-25 17:43:00,83.0,57.0,-100.00,NE,45,0.0,0.0,41,0.00,,,0.00,532.000000,,2013-08-25 21:43:00,
2013-08-25 17:55:00,83.0,57.0,-100.00,NE,45,0.0,0.0,41,0.00,,,0.00,532.000000,,2013-08-25 21:55:00,
2013-08-25 18:03:00,83.0,57.0,-100.00,NE,45,0.0,0.0,41,0.00,,,0.00,532.000000,,2013-08-25 22:03:00,
2013-08-25 18:43:00,83.0,57.0,-100.00,NE,37,0.0,0.0,41,0.00,,,0.00,398.000000,,2013-08-25 22:43:00,
2013-08-25 18:53:00,83.0,57.0,-100.00,NE,37,0.0,0.0,41,0.00,,,0.00,398.000000,,2013-08-25 22:53:00,
2013-08-25 19:03:00,83.0,57.0,-100.00,NE,37,0.0,0.0,41,0.00,,,0.00,398.000000,,2013-08-25 23:03:00,
2013-08-25 19:43:00,78.0,58.0,-100.00,NNW,336,0.0,0.0,50,0.00,,,0.00,197.000000,,2013-08-25 23:43:00,
2013-08-25 19:53:00,78.0,58.0,-100.00,NNW,336,0.0,0.0,50,0.00,,,0.00,197.000000,,2013-08-25 23:53:00,
2013-08-25 20:02:00,78.0,58.0,-100.00,NNW,336,0.0,0.0,50,0.00,,,0.00,197.000000,,2013-08-26 00:02:00,
2013-08-25 20:42:00,73.0,59.0,-100.00,West,275,0.0,0.0,61,0.00,,,0.00,20.000000,,2013-08-26 00:42:00,
2013-08-25 20:52:00,73.0,59.0,-100.00,West,275,0.0,0.0,61,0.00,,,0.00,20.000000,,2013-08-26 00:52:00,
2013-08-25 21:01:00,73.0,59.0,-100.00,West,275,0.0,0.0,61,0.00,,,0.00,20.000000,,2013-08-26 01:01:00,
2013-08-25 21:42:00,69.0,63.0,-100.00,WSW,245,0.0,0.0,81,0.00,,,0.00,1.000000,,2013-08-26 01:42:00,
2013-08-25 21:52:00,69.0,63.0,-100.00,WSW,245,0.0,0.0,81,0.00,,,0.00,1.000000,,2013-08-26 01:52:00,
2013-08-25 22:02:00,69.0,63.0,-100.00,WSW,245,0.0,0.0,81,0.00,,,0.00,1.000000,,2013-08-26 02:02:00,
2013-08-25 22:42:00,66.0,62.0,-100.00,NE,56,0.0,0.0,87,0.00,,,0.00,0.000000,,2013-08-26 02:42:00,
2013-08-25 22:52:00,66.0,62.0,-100.00,NE,56,0.0,0.0,87,0.00,,,0.00,0.000000,,2013-08-26 02:52:00,
2013-08-25 23:02:00,66.0,62.0,-100.00,NE,56,0.0,0.0,87,0.00,,,0.00,0.000000,,2013-08-26 03:02:00,
2013-08-25 23:05:00,64.0,60.0,-100.00,South,188,0.0,0.0,88,0.00,,,0.00,0.000000,,2013-08-26 03:05:00,
2013-08-25 23:44:00,64.0,60.0,-100.00,South,188,0.0,0.0,88,0.00,,,0.00,0.000000,,2013-08-26 03:44:00,
2013-08-25 23:56:00,64.0,60.0,-100.00,South,188,0.0,0.0,88,0.00,,,0.00,0.000000,,2013-08-26 03:56:00,